createdAt,value
2022-12-05T00:02:11.290Z,89.37
2022-12-05T00:04:39.839Z,89.57
2022-12-05T00:07:08.269Z,88.05
2022-12-05T00:09:36.342Z,88.15
2022-12-05T00:12:05.243Z,88.78
2022-12-05T00:14:33.541Z,88.83
2022-12-05T00:17:02.897Z,88.96
2022-12-05T00:19:32.153Z,87.81
2022-12-05T00:22:00.237Z,88.78
2022-12-05T00:24:28.274Z,87.71
2022-12-05T00:26:56.699Z,89.06
2022-12-05T00:29:24.854Z,89.26
2022-12-05T00:31:53.047Z,90.09
2022-12-05T00:34:23.030Z,91.19
2022-12-05T00:36:51.538Z,90.57
2022-12-05T00:39:19.597Z,90.08
2022-12-05T00:41:48.070Z,91.19
2022-12-05T00:44:16.381Z,90.22
2022-12-05T00:46:44.773Z,90.64
2022-12-05T00:49:13.988Z,89.68
2022-12-05T00:51:44.975Z,89.92
2022-12-05T00:54:15.991Z,90.22
2022-12-05T00:56:45.580Z,90.06
2022-12-05T00:59:17.734Z,89.91
2022-12-05T01:01:47.127Z,90.68
2022-12-05T01:04:18.077Z,89.97
2022-12-05T01:06:47.982Z,90.29
2022-12-05T01:09:17.877Z,90.49
2022-12-05T01:11:46.792Z,91.33
2022-12-05T01:14:16.309Z,90.01
2022-12-05T01:16:47.145Z,91.05
2022-12-05T01:19:17.757Z,90.72
2022-12-05T01:21:48.340Z,89.35
2022-12-05T01:24:17.895Z,89.96
2022-12-05T01:26:46.744Z,90.32
2022-12-05T01:29:17.367Z,89.60
2022-12-05T01:31:45.557Z,89.58
2022-12-05T01:34:16.693Z,90.11
2022-12-05T01:36:45.030Z,89.30
2022-12-05T01:39:15.085Z,89.32
2022-12-05T01:41:46.448Z,89.55
2022-12-05T01:44:52.241Z,89.70
2022-12-05T01:47:21.225Z,90.17
2022-12-05T01:49:49.119Z,90.63
2022-12-05T01:52:23.746Z,90.30
2022-12-05T01:54:57.753Z,90.60
2022-12-05T01:57:27.108Z,92.12
2022-12-05T02:00:05.022Z,91.57
2022-12-05T02:02:34.108Z,91.92
2022-12-05T02:05:07.167Z,91.54
2022-12-05T02:07:36.686Z,89.33
2022-12-05T02:10:07.526Z,89.79
2022-12-05T02:12:38.989Z,88.77
2022-12-05T02:15:21.991Z,91.87
2022-12-05T02:17:59.385Z,92.05
2022-12-05T02:20:39.897Z,91.69
2022-12-05T02:23:50.347Z,93.04
2022-12-05T02:26:47.564Z,92.50
2022-12-05T02:29:52.593Z,92.17
2022-12-05T02:32:34.523Z,90.73
2022-12-05T02:35:11.770Z,89.35
2022-12-05T02:37:45.518Z,89.69
2022-12-05T02:40:22.726Z,91.41
2022-12-05T02:42:56.859Z,91.41
2022-12-05T02:45:27.421Z,91.32
2022-12-05T02:47:57.129Z,93.06
2022-12-05T02:50:30.877Z,91.66
2022-12-05T02:53:03.815Z,91.73
2022-12-05T02:55:34.820Z,90.83
2022-12-05T02:58:06.471Z,91.74
2022-12-05T03:00:37.665Z,92.04
2022-12-05T03:03:15.723Z,91.39
2022-12-05T03:05:50.609Z,90.85
2022-12-05T03:08:23.259Z,91.85
2022-12-05T03:10:54.884Z,90.54
2022-12-05T03:13:28.192Z,91.94
2022-12-05T03:16:00.625Z,91.57
2022-12-05T03:18:31.960Z,90.95
2022-12-05T03:21:03.847Z,91.28
2022-12-05T03:23:35.594Z,91.89
2022-12-05T03:26:14.710Z,91.95
2022-12-05T03:28:55.856Z,92.03
2022-12-05T03:31:43.961Z,92.58
2022-12-05T03:34:19.613Z,92.18
2022-12-05T03:36:54.747Z,93.59
2022-12-05T03:39:25.335Z,92.67
2022-12-05T03:42:01.266Z,92.76
2022-12-05T03:44:37.511Z,92.47
2022-12-05T03:47:11.162Z,93.35
2022-12-05T03:49:45.702Z,93.50
2022-12-05T03:52:18.001Z,92.56
2022-12-05T03:54:49.253Z,93.55
2022-12-05T03:57:24.326Z,93.10
2022-12-05T03:59:58.766Z,93.39
2022-12-05T04:02:33.355Z,93.69
2022-12-05T04:05:07.906Z,93.91
2022-12-05T04:07:40.719Z,94.38
2022-12-05T04:10:12.833Z,94.33
2022-12-05T04:12:45.840Z,93.69
2022-12-05T04:15:18.387Z,93.79
2022-12-05T04:17:53.689Z,94.12
2022-12-05T04:20:45.269Z,94.70
2022-12-05T04:23:13.672Z,93.81
2022-12-05T04:25:51.223Z,94.25
2022-12-05T04:28:29.851Z,93.92
2022-12-05T04:31:05.040Z,93.58
2022-12-05T04:33:42.484Z,93.24
2022-12-05T04:36:16.513Z,93.41
2022-12-05T04:38:49.970Z,94.08
2022-12-05T04:41:23.896Z,94.57
2022-12-05T04:43:56.131Z,94.32
2022-12-05T04:46:25.574Z,94.40
2022-12-05T04:48:59.839Z,93.75
2022-12-05T04:51:34.815Z,94.73
2022-12-05T04:54:06.974Z,94.78
2022-12-05T04:56:39.134Z,94.19
2022-12-05T04:59:07.324Z,94.77
2022-12-05T05:01:38.981Z,93.48
2022-12-05T05:04:10.953Z,92.83
2022-12-05T05:06:41.158Z,92.74
2022-12-05T05:09:10.148Z,92.80
2022-12-05T05:11:38.800Z,93.54
2022-12-05T05:14:07.278Z,93.67
2022-12-05T05:16:38.123Z,94.37
2022-12-05T05:19:07.472Z,93.88
2022-12-05T05:21:37.679Z,94.69
2022-12-05T05:24:09.434Z,93.74
2022-12-05T05:26:39.803Z,93.77
2022-12-05T05:29:09.766Z,93.57
2022-12-05T05:31:39.325Z,92.62
2022-12-05T05:34:09.810Z,92.92
2022-12-05T05:36:39.417Z,93.33
2022-12-05T05:39:13.766Z,92.50
2022-12-05T05:41:42.322Z,93.00
2022-12-05T05:44:10.848Z,93.15
2022-12-05T05:46:39.738Z,93.37
2022-12-05T05:49:08.230Z,94.25
2022-12-05T05:51:36.239Z,93.37
2022-12-05T05:54:04.620Z,93.57
2022-12-05T05:56:34.061Z,94.00
2022-12-05T05:59:04.954Z,93.88
2022-12-05T06:01:33.341Z,92.91
2022-12-05T06:04:01.788Z,93.86
2022-12-05T06:06:30.200Z,94.25
2022-12-05T06:08:58.787Z,93.69
2022-12-05T06:11:28.947Z,93.26
2022-12-05T06:14:01.444Z,93.66
2022-12-05T06:16:30.844Z,92.62
2022-12-05T06:18:59.861Z,92.64
2022-12-05T06:21:28.363Z,92.64
2022-12-05T06:23:57.491Z,92.99
2022-12-05T06:26:26.430Z,93.15
2022-12-05T06:28:55.259Z,92.93
2022-12-05T06:31:28.471Z,92.67
2022-12-05T06:33:57.657Z,93.08
2022-12-05T06:36:26.906Z,93.18
2022-12-05T06:38:55.809Z,92.61
2022-12-05T06:41:24.771Z,93.39
2022-12-05T06:44:00.158Z,93.02
2022-12-05T06:46:31.843Z,92.38
2022-12-05T06:49:01.358Z,92.32
2022-12-05T06:51:29.509Z,92.69
2022-12-05T06:53:57.878Z,92.73
2022-12-05T06:56:26.206Z,92.50
2022-12-05T06:58:56.141Z,92.23
2022-12-05T07:01:41.328Z,92.22
2022-12-05T07:04:13.903Z,91.80
2022-12-05T07:06:48.681Z,92.42
2022-12-05T07:09:20.419Z,92.37
2022-12-05T07:11:49.536Z,90.95
2022-12-05T07:14:45.681Z,91.20
2022-12-05T07:17:07.155Z,90.88
2022-12-05T07:19:37.882Z,90.89
2022-12-05T07:22:09.497Z,90.45
2022-12-05T07:24:42.331Z,89.90
2022-12-05T07:27:10.893Z,90.32
2022-12-05T07:29:39.670Z,91.22
2022-12-05T07:32:08.567Z,90.76
2022-12-05T07:34:39.189Z,90.07
2022-12-05T07:37:08.349Z,91.12
2022-12-05T07:39:37.184Z,90.55
2022-12-05T07:42:05.962Z,90.52
2022-12-05T07:44:35.309Z,90.54
2022-12-05T07:47:03.808Z,90.29
2022-12-05T07:49:32.547Z,90.25
2022-12-05T07:52:02.262Z,91.94
2022-12-05T07:54:30.371Z,90.50
2022-12-05T07:56:58.940Z,90.78
2022-12-05T07:59:27.780Z,90.04
2022-12-05T08:01:56.278Z,90.48
2022-12-05T08:04:25.259Z,90.70
2022-12-05T08:06:53.780Z,90.93
2022-12-05T08:09:23.818Z,90.26
2022-12-05T08:11:52.889Z,90.81
2022-12-05T08:14:22.449Z,90.89
2022-12-05T08:16:51.380Z,91.02
2022-12-05T08:19:20.278Z,91.38
2022-12-05T08:21:49.125Z,91.06
2022-12-05T08:24:17.943Z,89.66
2022-12-05T08:26:47.744Z,91.24
2022-12-05T08:29:17.640Z,90.00
2022-12-05T08:31:48.543Z,90.71
2022-12-05T08:34:18.977Z,91.06
2022-12-05T08:36:47.792Z,90.11
2022-12-05T08:39:19.257Z,91.95
2022-12-05T08:41:50.093Z,91.26
2022-12-05T08:44:19.313Z,90.49
2022-12-05T08:46:50.227Z,90.30
2022-12-05T08:49:19.898Z,89.54
2022-12-05T08:51:48.399Z,90.31
2022-12-05T08:54:18.779Z,89.42
2022-12-05T08:56:51.406Z,89.64
2022-12-05T08:59:20.312Z,89.87
2022-12-05T09:01:51.564Z,88.55
2022-12-05T09:04:20.241Z,88.99
2022-12-05T09:06:48.422Z,89.20
2022-12-05T09:09:17.923Z,90.09
2022-12-05T09:11:49.528Z,89.22
2022-12-05T09:14:19.687Z,89.72
2022-12-05T09:16:48.824Z,89.87
2022-12-05T09:19:19.404Z,90.44
2022-12-05T09:21:48.202Z,90.88
2022-12-05T09:24:16.938Z,90.94
2022-12-05T09:26:46.494Z,90.61
2022-12-05T09:29:17.867Z,90.79
2022-12-05T09:31:51.758Z,91.20
2022-12-05T09:34:20.758Z,91.10
2022-12-05T09:37:05.720Z,92.40
2022-12-05T09:39:39.144Z,91.47
2022-12-05T09:42:24.283Z,91.57
2022-12-05T09:45:07.497Z,91.64
2022-12-05T09:47:49.215Z,91.40
2022-12-05T09:50:21.863Z,91.11
2022-12-05T09:53:01.548Z,91.34
2022-12-05T09:55:38.180Z,91.18
2022-12-05T09:58:14.044Z,91.62
2022-12-05T10:00:43.185Z,90.82
2022-12-05T10:03:23.729Z,90.95
2022-12-05T10:06:03.613Z,89.77
2022-12-05T10:08:40.353Z,89.08
2022-12-05T10:11:16.018Z,90.05
2022-12-05T10:13:54.408Z,90.31
2022-12-05T10:16:31.458Z,90.79
2022-12-05T10:19:06.307Z,90.14
2022-12-05T10:21:39.419Z,91.09
2022-12-05T10:24:13.620Z,91.00
2022-12-05T10:26:46.634Z,91.04
2022-12-05T10:29:25.118Z,90.46
2022-12-05T10:31:59.049Z,91.57
2022-12-05T10:34:33.498Z,90.37
2022-12-05T10:37:11.677Z,90.34
2022-12-05T10:39:40.247Z,90.09
2022-12-05T10:42:12.338Z,90.15
2022-12-05T10:44:41.307Z,90.35
2022-12-05T10:47:10.581Z,90.06
2022-12-05T10:49:40.837Z,88.73
2022-12-05T10:52:10.647Z,89.79
2022-12-05T10:54:45.986Z,90.03
2022-12-05T10:57:24.339Z,89.87
2022-12-05T10:59:53.446Z,89.11
2022-12-05T11:02:27.161Z,89.46
2022-12-05T11:04:58.786Z,88.75
2022-12-05T11:07:32.470Z,90.07
2022-12-05T11:10:03.698Z,89.11
2022-12-05T11:12:39.061Z,89.75
2022-12-05T11:15:27.197Z,89.58
2022-12-05T11:17:58.806Z,89.66
2022-12-05T11:20:43.941Z,89.67
2022-12-05T11:23:27.550Z,89.29
2022-12-05T11:25:56.647Z,88.11
2022-12-05T11:28:32.411Z,88.76
2022-12-05T11:31:03.095Z,88.98
2022-12-05T11:33:32.967Z,88.43
2022-12-05T11:36:09.156Z,88.04
2022-12-05T11:38:37.758Z,87.87
2022-12-05T11:41:23.645Z,86.85
2022-12-05T11:44:11.359Z,87.35
2022-12-05T11:46:57.647Z,87.64
2022-12-05T11:49:42.482Z,87.04
2022-12-05T11:52:24.334Z,86.66
2022-12-05T11:55:06.882Z,88.28
2022-12-05T11:58:01.887Z,88.41
2022-12-05T12:00:39.918Z,88.26
2022-12-05T12:03:37.955Z,87.53
2022-12-05T12:06:22.064Z,88.20
2022-12-05T12:09:07.359Z,87.67
2022-12-05T12:11:42.910Z,88.56
2022-12-05T12:14:21.423Z,88.40
2022-12-05T12:16:59.729Z,88.61
2022-12-05T12:19:53.603Z,89.17
2022-12-05T12:22:50.356Z,88.68
2022-12-05T12:25:42.667Z,89.19
2022-12-05T12:28:27.738Z,90.30
2022-12-05T12:31:08.005Z,89.93
2022-12-05T12:33:41.730Z,89.41
2022-12-05T12:36:17.999Z,89.79
2022-12-05T12:39:04.712Z,89.18
2022-12-05T12:42:05.759Z,90.18
2022-12-05T12:45:21.576Z,90.03
2022-12-05T12:48:05.036Z,90.02
2022-12-05T12:50:41.815Z,90.56
2022-12-05T12:53:37.471Z,90.66
2022-12-05T12:56:19.099Z,90.26
2022-12-05T12:58:56.367Z,90.36
2022-12-05T13:01:35.991Z,88.70
2022-12-05T13:04:14.915Z,90.11
2022-12-05T13:06:50.972Z,89.74
2022-12-05T13:09:24.767Z,90.14
2022-12-05T13:11:57.117Z,89.01
2022-12-05T13:14:29.359Z,90.26
2022-12-05T13:17:07.447Z,88.64
2022-12-05T13:19:45.051Z,88.45
2022-12-05T13:22:15.514Z,88.25
2022-12-05T13:24:45.647Z,88.10
2022-12-05T13:27:22.815Z,88.36
2022-12-05T13:30:04.134Z,88.23
2022-12-05T13:32:41.428Z,88.65
2022-12-05T13:35:39.279Z,88.21
2022-12-05T13:38:25.160Z,89.22
2022-12-05T13:41:13.076Z,88.63
2022-12-05T13:43:49.439Z,87.71
2022-12-05T13:46:31.718Z,89.40
2022-12-05T13:49:06.963Z,90.50
2022-12-05T13:51:38.493Z,89.57
2022-12-05T13:54:12.887Z,89.18
2022-12-05T13:56:53.912Z,90.56
2022-12-05T14:00:01.853Z,89.93
2022-12-05T14:02:51.428Z,90.94
2022-12-05T14:05:38.339Z,91.07
2022-12-05T14:08:48.198Z,92.09
2022-12-05T14:11:16.502Z,91.25
2022-12-05T14:13:46.305Z,91.06
2022-12-05T14:16:47.501Z,90.69
2022-12-05T14:19:52.672Z,90.75
2022-12-05T14:22:46.280Z,91.92
2022-12-05T14:25:26.512Z,91.80
2022-12-05T14:28:02.556Z,92.06
2022-12-05T14:30:44.498Z,91.05
2022-12-05T14:33:17.450Z,91.63
2022-12-05T14:35:51.943Z,91.36
2022-12-05T14:38:30.059Z,90.13
2022-12-05T14:41:12.773Z,91.14
2022-12-05T14:43:42.682Z,90.82
2022-12-05T14:46:22.476Z,90.74
2022-12-05T14:48:52.252Z,90.60
2022-12-05T14:51:47.291Z,89.96
2022-12-05T14:54:17.999Z,89.87
2022-12-05T14:56:49.733Z,91.08
2022-12-05T14:59:26.066Z,91.25
2022-12-05T15:01:57.515Z,91.11
2022-12-05T15:04:32.454Z,91.21
2022-12-05T15:07:06.190Z,91.14
2022-12-05T15:09:46.330Z,91.36
2022-12-05T15:12:18.062Z,91.75
2022-12-05T15:14:51.975Z,91.71
2022-12-05T15:17:26.599Z,92.19
2022-12-05T15:20:05.313Z,93.11
2022-12-05T15:22:39.264Z,93.38
2022-12-05T15:25:33.565Z,92.93
2022-12-05T15:28:07.156Z,92.17
2022-12-05T15:30:41.115Z,91.58
2022-12-05T15:33:13.858Z,92.69
2022-12-05T15:35:46.641Z,91.90
2022-12-05T15:38:27.454Z,90.86
2022-12-05T15:40:56.427Z,89.18
2022-12-05T15:43:33.041Z,90.27
2022-12-05T15:46:21.155Z,89.86
2022-12-05T15:48:49.220Z,91.43
2022-12-05T15:51:18.219Z,90.55
2022-12-05T15:53:51.336Z,90.90
2022-12-05T15:56:24.187Z,90.60
2022-12-05T15:58:57.594Z,91.12
2022-12-05T16:01:29.394Z,90.51
2022-12-05T16:04:04.351Z,91.21
2022-12-05T16:06:36.548Z,94.67
2022-12-05T16:09:11.713Z,93.15
2022-12-05T16:11:40.985Z,92.15
2022-12-05T16:14:09.652Z,92.27
2022-12-05T16:16:40.005Z,93.04
2022-12-05T16:19:16.359Z,92.67
2022-12-05T16:21:47.201Z,91.90
2022-12-05T16:24:21.691Z,92.58
2022-12-05T16:26:58.287Z,92.44
2022-12-05T16:29:29.047Z,91.43
2022-12-05T16:31:59.033Z,91.36
2022-12-05T16:34:28.856Z,91.97
2022-12-05T16:36:59.000Z,92.76
2022-12-05T16:39:29.817Z,91.69
2022-12-05T16:41:59.873Z,92.99
2022-12-05T16:45:04.151Z,92.47
2022-12-05T16:48:00.483Z,91.42
2022-12-05T16:50:33.468Z,91.90
2022-12-05T16:53:15.825Z,91.82
2022-12-05T16:55:46.812Z,90.74
2022-12-05T16:58:24.190Z,91.69
2022-12-05T17:00:53.861Z,91.15
2022-12-05T17:03:37.522Z,91.45
2022-12-05T17:06:10.042Z,91.86
2022-12-05T17:08:38.885Z,91.50
2022-12-05T17:11:11.678Z,91.06
2022-12-05T17:13:40.731Z,91.76
2022-12-05T17:16:09.872Z,91.89
2022-12-05T17:18:41.567Z,90.62
2022-12-05T17:21:15.894Z,90.40
2022-12-05T17:23:47.871Z,90.18
2022-12-05T17:26:21.464Z,89.92
2022-12-05T17:28:51.033Z,91.26
2022-12-05T17:31:21.337Z,90.51
2022-12-05T17:33:50.884Z,89.30
2022-12-05T17:36:21.110Z,89.45
2022-12-05T17:38:50.544Z,89.89
2022-12-05T17:41:23.289Z,89.28
2022-12-05T17:43:52.635Z,90.68
2022-12-05T17:46:23.486Z,92.21
2022-12-05T17:48:53.365Z,92.23
2022-12-05T17:51:22.441Z,90.32
2022-12-05T17:53:53.018Z,89.47
2022-12-05T17:56:23.162Z,89.89
2022-12-05T17:58:52.041Z,90.13
2022-12-05T18:01:21.916Z,90.42
2022-12-05T18:03:50.565Z,91.79
2022-12-05T18:06:19.981Z,90.91
2022-12-05T18:08:49.754Z,90.82
2022-12-05T18:11:18.104Z,91.81
2022-12-05T18:13:47.571Z,91.47
2022-12-05T18:16:16.131Z,90.16
2022-12-05T18:18:44.388Z,89.78
2022-12-05T18:21:14.702Z,90.56
2022-12-05T18:23:42.976Z,89.48
2022-12-05T18:26:12.754Z,88.89
2022-12-05T18:28:41.367Z,89.18
2022-12-05T18:31:13.962Z,91.79
2022-12-05T18:33:42.481Z,90.50
2022-12-05T18:36:12.837Z,89.58
2022-12-05T18:38:42.851Z,88.87
2022-12-05T18:41:12.013Z,89.26
2022-12-05T18:43:40.828Z,89.16
2022-12-05T18:46:11.130Z,88.11
2022-12-05T18:48:46.092Z,88.45
2022-12-05T18:51:17.557Z,90.05
2022-12-05T18:53:52.220Z,89.79
2022-12-05T18:56:24.603Z,90.29
2022-12-05T18:58:58.581Z,90.23
2022-12-05T19:01:30.937Z,89.50
2022-12-05T19:04:01.614Z,90.63
2022-12-05T19:06:31.547Z,90.73
2022-12-05T19:09:01.073Z,91.53
2022-12-05T19:11:30.291Z,90.49
2022-12-05T19:13:59.853Z,90.50
2022-12-05T19:16:31.963Z,89.58
2022-12-05T19:19:01.848Z,90.34
2022-12-05T19:21:32.514Z,90.84
2022-12-05T19:24:02.294Z,91.89
2022-12-05T19:26:30.705Z,90.64
2022-12-05T19:28:59.842Z,89.99
2022-12-05T19:31:30.833Z,88.97
2022-12-05T19:34:01.644Z,88.78
2022-12-05T19:36:32.261Z,89.88
2022-12-05T19:39:00.744Z,88.44
2022-12-05T19:41:31.499Z,90.43
2022-12-05T19:44:01.770Z,90.95
2022-12-05T19:46:33.563Z,90.74
2022-12-05T19:49:03.593Z,89.83
2022-12-05T19:51:32.826Z,90.17
2022-12-05T19:54:02.380Z,90.08
2022-12-05T19:56:32.198Z,91.46
2022-12-05T19:59:01.305Z,90.09
2022-12-05T20:01:33.272Z,89.84
2022-12-05T20:04:04.368Z,89.37
2022-12-05T20:06:34.636Z,89.98
2022-12-05T20:09:03.419Z,90.97
2022-12-05T20:11:32.322Z,89.98
2022-12-05T20:14:02.044Z,90.92
2022-12-05T20:16:33.899Z,90.79
2022-12-05T20:19:02.463Z,89.74
2022-12-05T20:21:32.606Z,89.81
2022-12-05T20:24:02.472Z,89.18
2022-12-05T20:26:33.065Z,90.12
2022-12-05T20:29:02.120Z,89.31
2022-12-05T20:31:33.512Z,89.13
2022-12-05T20:34:01.882Z,89.16
2022-12-05T20:36:31.823Z,89.73
2022-12-05T20:39:01.933Z,89.41
2022-12-05T20:41:30.932Z,89.87
2022-12-05T20:44:00.839Z,88.54
2022-12-05T20:46:29.603Z,88.97
2022-12-05T20:49:00.129Z,89.90
2022-12-05T20:51:31.065Z,90.03
2022-12-05T20:53:59.654Z,90.51
2022-12-05T20:56:29.359Z,89.30
2022-12-05T20:58:59.411Z,89.38
2022-12-05T21:01:29.518Z,89.37
2022-12-05T21:03:59.171Z,88.72
2022-12-05T21:06:30.646Z,88.40
2022-12-05T21:08:59.431Z,89.97
2022-12-05T21:11:29.114Z,90.15
2022-12-05T21:14:00.629Z,89.53
2022-12-05T21:16:29.112Z,89.64
2022-12-05T21:19:00.428Z,88.69
2022-12-05T21:21:29.932Z,88.26
2022-12-05T21:24:00.102Z,88.67
2022-12-05T21:26:30.272Z,89.76
2022-12-05T21:29:00.149Z,89.84
2022-12-05T21:31:30.868Z,90.17
2022-12-05T21:34:03.696Z,89.71
2022-12-05T21:36:33.763Z,89.54
2022-12-05T21:39:02.475Z,88.83
2022-12-05T21:41:30.675Z,88.90
2022-12-05T21:43:59.475Z,89.59
2022-12-05T21:46:28.023Z,89.55
2022-12-05T21:48:56.769Z,90.09
2022-12-05T21:51:26.823Z,88.12
2022-12-05T21:53:55.369Z,89.20
2022-12-05T21:56:25.513Z,89.15
2022-12-05T21:58:54.279Z,88.96
2022-12-05T22:01:24.978Z,89.77
2022-12-05T22:03:54.720Z,88.77
2022-12-05T22:06:23.143Z,88.57
2022-12-05T22:08:52.966Z,88.04
2022-12-05T22:11:22.594Z,91.80
2022-12-05T22:13:51.671Z,92.21
2022-12-05T22:16:20.658Z,90.68
2022-12-05T22:18:49.449Z,90.87
2022-12-05T22:21:19.627Z,89.16
2022-12-05T22:23:48.658Z,88.97
2022-12-05T22:26:19.630Z,88.39
2022-12-05T22:28:48.641Z,89.26
2022-12-05T22:31:17.913Z,89.45
2022-12-05T22:33:46.796Z,88.94
2022-12-05T22:36:17.038Z,89.84
2022-12-05T22:38:47.062Z,89.79
2022-12-05T22:41:18.319Z,90.65
2022-12-05T22:43:47.756Z,90.89
2022-12-05T22:46:18.362Z,90.55
2022-12-05T22:48:47.955Z,90.21
2022-12-05T22:51:16.974Z,90.54
2022-12-05T22:53:45.723Z,89.70
2022-12-05T22:56:15.400Z,90.45
2022-12-05T22:58:46.414Z,89.45
2022-12-05T23:01:16.444Z,89.45
2022-12-05T23:03:46.306Z,89.50
2022-12-05T23:06:16.288Z,88.97
2022-12-05T23:08:49.383Z,89.97
2022-12-05T23:11:19.057Z,89.85
2022-12-05T23:13:49.390Z,89.62
2022-12-05T23:16:21.367Z,88.67
2022-12-05T23:18:50.566Z,89.33
2022-12-05T23:21:21.422Z,88.56
2022-12-05T23:23:51.318Z,88.60
2022-12-05T23:26:21.622Z,88.29
2022-12-05T23:28:52.061Z,88.41
2022-12-05T23:31:21.021Z,90.03
2022-12-05T23:33:51.622Z,89.65
2022-12-05T23:36:20.442Z,89.67
2022-12-05T23:38:49.385Z,89.55
2022-12-05T23:41:20.205Z,89.84
2022-12-05T23:43:51.025Z,89.49
2022-12-05T23:46:21.743Z,89.00
2022-12-05T23:48:50.910Z,88.89
2022-12-05T23:51:21.276Z,88.59
2022-12-05T23:53:53.815Z,88.80
2022-12-05T23:56:25.225Z,88.98
2022-12-05T23:58:55.786Z,88.62
